AZA weather

Phoenix-Mesa-Gateway Airport
Phoenix, Arizona, United States

Public forecast

Using degrees Fahrenheit for public forecast. Weather courtesy of forecast.io.

METAR (pilot weather report)

Retrieved 2019/07/15 18:50 UTC (50 minutes ago):

KIWA 151850Z 23005KT 10SM FEW200 40/15 A2987 RMK TCU DSNT N-E

TAF (pilot weather forecast)

Retrieved 2019/07/15 18:22 UTC (1 hour ago):

TAF KIWA 151720Z 1518/1618 27006KT P6SM FEW150 FM152100 27012G18KT P6SM FEW150 FM160700 13007KT P6SM SKC